Time;durP1;ratioP1;P1;durP2;ratioP2;P2;SDS_P1;SDS_P2;PMS_P1;PMS_P2;Temp;Humidity;BMP_temperature;BMP_pressure;BME280_temperature;BME280_humidity;BME280_pressure;Samples;Min_cycle;Max_cycle;Signal;HPM_P1;HPM_P2
2022/09/08 00:00:28;;;;;;;7.88;3.80;;;;;;;;;;5064579;28;20159;-59
2022/09/08 00:02:55;;;;;;;9.98;4.30;;;;;;;;;;5065974;28;20118;-59
2022/09/08 00:05:24;;;;;;;8.43;3.60;;;;;;;;;;5060209;28;20025;-59
2022/09/08 00:07:52;;;;;;;6.22;3.45;;;;;;;;;;5062835;28;20536;-59
2022/09/08 00:10:18;;;;;;;5.75;3.17;;;;;;;;;;5061056;28;20044;-59
2022/09/08 00:12:44;;;;;;;5.93;2.85;;;;;;;;;;5063253;28;20017;-59
2022/09/08 00:15:11;;;;;;;6.20;3.33;;;;;;;;;;5051229;28;20025;-59
2022/09/08 00:17:37;;;;;;;7.72;3.03;;;;;;;;;;5058651;28;20040;-59
2022/09/08 00:20:04;;;;;;;6.43;2.92;;;;;;;;;;5066666;28;20542;-59
2022/09/08 00:22:29;;;;;;;4.75;3.17;;;;;;;;;;5065743;28;20032;-58
2022/09/08 00:24:55;;;;;;;4.43;2.90;;;;;;;;;;5070477;28;20210;-58
2022/09/08 00:27:20;;;;;;;7.28;2.85;;;;;;;;;;5072857;28;20033;-58
2022/09/08 00:29:45;;;;;;;4.22;2.95;;;;;;;;;;5070759;28;20508;-58
2022/09/08 00:32:11;;;;;;;4.25;2.70;;;;;;;;;;5070690;28;20024;-58
2022/09/08 00:34:36;;;;;;;4.80;3.05;;;;;;;;;;5071043;28;20302;-57
2022/09/08 00:37:02;;;;;;;10.57;2.80;;;;;;;;;;5070092;28;20074;-57
2022/09/08 00:39:28;;;;;;;3.00;2.70;;;;;;;;;;5070182;28;20401;-57
2022/09/08 00:41:55;;;;;;;5.25;2.65;;;;;;;;;;5068975;28;20058;-57
2022/09/08 00:44:40;;;;;;;3.53;2.88;;;;;;;;;;5066980;28;20016;-56
2022/09/08 00:47:30;;;;;;;6.55;2.80;;;;;;;;;;5063867;28;20486;-57
2022/09/08 00:50:14;;;;;;;4.78;2.83;;;;;;;;;;5066914;28;20100;-57
2022/09/08 00:53:03;;;;;;;3.95;2.20;;;;;;;;;;5067736;28;20024;-57
2022/09/08 00:55:32;;;;;;;7.27;2.70;;;;;;;;;;5068698;28;20033;-57
2022/09/08 00:57:57;;;;;;;;;;;;;;;;;;5071187;28;20035;-57
2022/09/08 01:00:23;;;;;;;4.00;1.95;;;;;;;;;;5069517;28;19912;-57
2022/09/08 01:02:49;;;;;;;4.82;2.35;;;;;;;;;;5063448;28;20048;-57
2022/09/08 01:05:20;;;;;;;2.33;2.08;;;;;;;;;;5058141;28;20508;-57
2022/09/08 01:13:46;;;;;;;3.10;2.00;;;;;;;;;;5066668;28;20508;-56
2022/09/08 01:16:11;;;;;;;4.57;1.98;;;;;;;;;;5065655;28;20025;-57
2022/09/08 01:18:38;;;;;;;3.97;1.95;;;;;;;;;;5067010;28;20027;-57
2022/09/08 01:21:34;;;;;;;5.55;2.00;;;;;;;;;;5067180;28;20025;-57
2022/09/08 01:24:13;;;;;;;3.05;1.75;;;;;;;;;;5067910;28;20092;-57
2022/09/08 01:26:59;;;;;;;3.67;1.90;;;;;;;;;;5062632;28;20086;-56
2022/09/08 01:29:25;;;;;;;5.20;1.50;;;;;;;;;;5067365;28;20032;-57
2022/09/08 01:31:52;;;;;;;3.10;1.60;;;;;;;;;;5068340;28;20016;-57
2022/09/08 01:34:18;;;;;;;3.78;1.55;;;;;;;;;;5068812;28;20085;-57
2022/09/08 01:36:43;;;;;;;2.83;1.60;;;;;;;;;;5066821;28;20028;-57
2022/09/08 01:39:09;;;;;;;2.10;1.73;;;;;;;;;;5069211;28;20478;-57
2022/09/08 01:41:35;;;;;;;2.33;1.50;;;;;;;;;;5068319;28;20064;-57
2022/09/08 01:44:00;;;;;;;4.72;1.70;;;;;;;;;;5070642;28;20017;-58
2022/09/08 01:46:26;;;;;;;2.10;1.70;;;;;;;;;;5066321;28;20543;-58
2022/09/08 01:48:52;;;;;;;2.08;1.60;;;;;;;;;;5067186;28;20040;-58
2022/09/08 01:51:17;;;;;;;5.03;1.70;;;;;;;;;;5066976;28;20031;-58
2022/09/08 01:53:42;;;;;;;3.17;1.95;;;;;;;;;;5065683;28;20522;-58
2022/09/08 01:56:08;;;;;;;3.67;1.75;;;;;;;;;;5068499;28;20500;-58
2022/09/08 01:58:33;;;;;;;2.78;1.45;;;;;;;;;;5067068;28;20035;-58
2022/09/08 02:00:59;;;;;;;2.75;1.73;;;;;;;;;;5064122;28;20029;-58
2022/09/08 02:03:25;;;;;;;4.38;2.00;;;;;;;;;;5066967;28;20509;-58
2022/09/08 02:05:51;;;;;;;2.25;1.58;;;;;;;;;;5058494;28;20029;-58
2022/09/08 02:08:16;;;;;;;3.78;1.80;;;;;;;;;;5064165;28;20028;-58
2022/09/08 02:10:42;;;;;;;1.58;1.42;;;;;;;;;;5057973;28;20487;-58
2022/09/08 02:13:08;;;;;;;3.15;1.45;;;;;;;;;;5059174;28;20021;-59
2022/09/08 02:15:33;;;;;;;3.95;1.48;;;;;;;;;;5059796;28;20028;-58
2022/09/08 02:17:59;;;;;;;5.63;1.98;;;;;;;;;;5064173;28;20044;-59
2022/09/08 02:20:26;;;;;;;2.78;1.60;;;;;;;;;;5065531;28;20461;-59
2022/09/08 02:22:53;;;;;;;2.15;1.50;;;;;;;;;;5065878;28;20059;-58
2022/09/08 02:25:18;;;;;;;4.20;1.65;;;;;;;;;;5067855;28;20861;-58
2022/09/08 02:27:43;;;;;;;2.03;1.35;;;;;;;;;;5064682;28;20039;-59
2022/09/08 02:30:11;;;;;;;4.75;1.60;;;;;;;;;;5069216;28;20435;-58
2022/09/08 02:32:37;;;;;;;1.67;1.45;;;;;;;;;;5065607;28;20032;-58
2022/09/08 02:35:02;;;;;;;5.97;3.17;;;;;;;;;;5068096;28;20108;-58
2022/09/08 02:37:28;;;;;;;2.58;1.60;;;;;;;;;;5068326;28;20497;-58
2022/09/08 02:39:53;;;;;;;2.78;1.50;;;;;;;;;;5064621;28;20433;-58
2022/09/08 02:42:18;;;;;;;2.78;1.60;;;;;;;;;;5066651;28;20024;-58
2022/09/08 02:44:44;;;;;;;3.80;1.65;;;;;;;;;;5065405;28;20028;-59
2022/09/08 02:47:09;;;;;;;2.45;1.70;;;;;;;;;;5067277;28;20051;-58
2022/09/08 02:49:35;;;;;;;1.63;1.40;;;;;;;;;;5065553;28;20235;-58
2022/09/08 02:52:00;;;;;;;1.88;1.40;;;;;;;;;;5067217;28;20436;-58
2022/09/08 02:54:25;;;;;;;1.77;1.40;;;;;;;;;;5058569;28;20059;-59
2022/09/08 02:56:51;;;;;;;2.08;1.40;;;;;;;;;;5062599;28;20554;-59
2022/09/08 02:59:17;;;;;;;3.30;1.60;;;;;;;;;;5063904;28;20024;-58
2022/09/08 03:01:46;;;;;;;3.80;1.15;;;;;;;;;;5062687;28;20032;-58
2022/09/08 03:04:13;;;;;;;1.88;1.40;;;;;;;;;;5064151;28;20043;-58
2022/09/08 03:06:39;;;;;;;4.75;2.05;;;;;;;;;;5062803;28;20024;-58
2022/09/08 03:09:06;;;;;;;1.60;1.20;;;;;;;;;;5062510;28;20119;-59
2022/09/08 03:11:32;;;;;;;1.85;1.00;;;;;;;;;;5066907;28;20085;-58
2022/09/08 03:13:58;;;;;;;2.55;1.10;;;;;;;;;;5066848;28;20024;-58
2022/09/08 03:16:25;;;;;;;1.20;0.90;;;;;;;;;;5061395;28;20032;-59
2022/09/08 03:18:50;;;;;;;1.15;1.05;;;;;;;;;;5063791;28;20016;-58
2022/09/08 03:21:16;;;;;;;1.23;1.00;;;;;;;;;;5058500;28;20364;-58
2022/09/08 03:23:42;;;;;;;1.45;1.10;;;;;;;;;;5066515;28;20096;-59
2022/09/08 03:26:19;;;;;;;1.35;1.02;;;;;;;;;;5066233;28;20024;-59
2022/09/08 03:28:46;;;;;;;1.35;1.08;;;;;;;;;;5060743;28;20206;-59
2022/09/08 03:31:13;;;;;;;2.15;0.82;;;;;;;;;;5067650;28;20059;-59
2022/09/08 03:33:40;;;;;;;1.08;0.90;;;;;;;;;;5066578;28;20032;-59
2022/09/08 03:36:07;;;;;;;3.22;0.80;;;;;;;;;;5064562;28;20508;-58
2022/09/08 03:38:34;;;;;;;1.20;1.00;;;;;;;;;;5066085;28;20056;-58
2022/09/08 03:41:00;;;;;;;1.45;1.08;;;;;;;;;;5058484;28;20028;-58
2022/09/08 03:43:26;;;;;;;2.00;1.00;;;;;;;;;;5067511;28;20490;-59
2022/09/08 03:45:51;;;;;;;2.45;0.80;;;;;;;;;;5061067;28;20020;-59
2022/09/08 03:48:16;;;;;;;1.60;1.02;;;;;;;;;;5068080;28;20059;-58
2022/09/08 03:50:43;;;;;;;2.85;0.90;;;;;;;;;;5064433;28;20028;-58
2022/09/08 03:53:09;;;;;;;1.80;0.73;;;;;;;;;;5064029;28;20028;-58
2022/09/08 03:55:39;;;;;;;1.25;0.82;;;;;;;;;;5062507;28;20371;-59
2022/09/08 03:58:04;;;;;;;1.23;0.75;;;;;;;;;;5063540;28;20033;-59
2022/09/08 04:00:29;;;;;;;1.00;0.90;;;;;;;;;;5063252;28;20040;-59
2022/09/08 04:02:55;;;;;;;1.60;0.73;;;;;;;;;;5062789;28;20434;-59
2022/09/08 04:05:21;;;;;;;2.55;1.42;;;;;;;;;;5062265;28;20098;-59
2022/09/08 04:07:47;;;;;;;1.15;0.88;;;;;;;;;;5067921;28;20070;-59
2022/09/08 04:10:13;;;;;;;2.90;0.70;;;;;;;;;;5065799;28;20028;-58
2022/09/08 04:12:39;;;;;;;1.73;0.80;;;;;;;;;;5063608;28;20032;-58
2022/09/08 04:15:06;;;;;;;2.40;1.30;;;;;;;;;;5059314;28;20035;-58
2022/09/08 04:17:32;;;;;;;3.58;0.80;;;;;;;;;;5066148;28;20494;-58
2022/09/08 04:19:57;;;;;;;0.88;0.73;;;;;;;;;;5059719;28;20031;-58
2022/09/08 04:22:23;;;;;;;2.10;0.80;;;;;;;;;;5061256;28;20444;-58
2022/09/08 04:24:49;;;;;;;2.25;0.77;;;;;;;;;;5065275;28;20021;-58
2022/09/08 04:27:16;;;;;;;1.63;1.05;;;;;;;;;;5063048;28;20162;-58
2022/09/08 04:29:42;;;;;;;2.55;0.82;;;;;;;;;;5066302;28;20066;-58
2022/09/08 04:32:07;;;;;;;1.85;0.93;;;;;;;;;;5066144;28;20021;-58
2022/09/08 04:34:34;;;;;;;1.45;0.70;;;;;;;;;;5061827;28;20068;-58
2022/09/08 04:36:59;;;;;;;1.42;0.70;;;;;;;;;;5061788;28;20025;-58
2022/09/08 04:39:24;;;;;;;5.13;0.85;;;;;;;;;;5063258;28;20496;-58
2022/09/08 04:41:50;;;;;;;1.20;0.80;;;;;;;;;;5063496;28;20037;-58
2022/09/08 04:44:15;;;;;;;3.80;0.85;;;;;;;;;;5065696;28;20025;-58
2022/09/08 04:46:40;;;;;;;2.60;0.70;;;;;;;;;;5063784;28;20024;-58
2022/09/08 04:49:06;;;;;;;0.93;0.70;;;;;;;;;;5064691;28;20032;-58
2022/09/08 04:51:32;;;;;;;1.73;0.70;;;;;;;;;;5058858;28;20494;-58
2022/09/08 04:53:59;;;;;;;1.13;1.00;;;;;;;;;;5063779;28;20066;-58
2022/09/08 04:56:26;;;;;;;4.75;1.15;;;;;;;;;;5065001;28;20028;-59
2022/09/08 04:58:53;;;;;;;1.02;0.70;;;;;;;;;;5065918;28;20028;-60
2022/09/08 05:01:24;;;;;;;3.33;0.95;;;;;;;;;;5059616;28;20241;-61
2022/09/08 05:03:51;;;;;;;1.58;0.75;;;;;;;;;;5061555;28;20116;-61
2022/09/08 05:06:17;;;;;;;3.30;0.77;;;;;;;;;;5063597;28;20031;-61
2022/09/08 05:08:45;;;;;;;0.95;0.70;;;;;;;;;;5061673;28;20017;-60
2022/09/08 05:11:11;;;;;;;1.65;0.98;;;;;;;;;;5065576;28;20025;-61
2022/09/08 05:13:37;;;;;;;1.63;0.80;;;;;;;;;;5061144;28;20032;-61
2022/09/08 05:16:08;;;;;;;2.30;1.02;;;;;;;;;;5063337;28;20175;-62
2022/09/08 05:18:34;;;;;;;0.90;0.73;;;;;;;;;;5061215;28;20512;-61
2022/09/08 05:20:59;;;;;;;2.83;1.02;;;;;;;;;;5060804;28;20035;-62
2022/09/08 05:23:25;;;;;;;1.73;0.90;;;;;;;;;;5062367;28;20021;-62
2022/09/08 05:25:59;;;;;;;3.60;0.90;;;;;;;;;;5060502;28;20166;-61
2022/09/08 05:28:26;;;;;;;2.78;0.98;;;;;;;;;;5066854;28;20031;-62
2022/09/08 05:30:52;;;;;;;1.40;0.90;;;;;;;;;;5069795;28;20029;-62
2022/09/08 05:33:17;;;;;;;1.15;0.70;;;;;;;;;;5063760;28;20601;-62
2022/09/08 05:35:42;;;;;;;0.85;0.70;;;;;;;;;;5065960;28;20436;-61
2022/09/08 05:38:08;;;;;;;1.23;0.80;;;;;;;;;;5069661;28;20021;-61
2022/09/08 05:40:36;;;;;;;2.03;0.90;;;;;;;;;;5066039;28;20028;-61
2022/09/08 05:43:02;;;;;;;4.53;0.85;;;;;;;;;;5060858;28;20035;-61
2022/09/08 05:45:27;;;;;;;0.88;0.80;;;;;;;;;;5069280;28;20044;-62
2022/09/08 05:47:53;;;;;;;2.50;0.90;;;;;;;;;;5067333;28;20150;-61
2022/09/08 05:50:18;;;;;;;1.27;0.80;;;;;;;;;;5066792;28;20417;-62
2022/09/08 05:52:44;;;;;;;1.98;1.15;;;;;;;;;;5066268;28;20032;-61
2022/09/08 05:55:09;;;;;;;2.10;1.08;;;;;;;;;;5066403;28;20028;-61
2022/09/08 05:57:35;;;;;;;1.05;0.95;;;;;;;;;;5065654;28;20028;-61
2022/09/08 06:00:02;;;;;;;2.10;0.90;;;;;;;;;;5065612;28;20021;-61
2022/09/08 06:02:27;;;;;;;1.08;0.85;;;;;;;;;;5061637;28;20552;-62
2022/09/08 06:04:53;;;;;;;1.05;0.90;;;;;;;;;;5064309;28;20033;-61
2022/09/08 06:07:18;;;;;;;0.90;0.90;;;;;;;;;;5064045;28;20437;-61
2022/09/08 06:09:43;;;;;;;1.88;0.98;;;;;;;;;;5064535;28;20396;-61
2022/09/08 06:12:09;;;;;;;1.67;1.08;;;;;;;;;;5060539;28;20082;-62
2022/09/08 06:14:34;;;;;;;4.07;2.20;;;;;;;;;;5058273;28;20057;-61
2022/09/08 06:17:00;;;;;;;2.17;1.00;;;;;;;;;;5058063;28;20486;-62
2022/09/08 06:19:25;;;;;;;2.42;1.00;;;;;;;;;;5062931;28;20104;-62
2022/09/08 06:21:51;;;;;;;1.88;1.33;;;;;;;;;;5060114;28;20119;-62
2022/09/08 06:24:16;;;;;;;3.28;1.77;;;;;;;;;;5055055;28;20029;-61
2022/09/08 06:26:58;;;;;;;4.03;1.33;;;;;;;;;;5067514;28;20030;-61
2022/09/08 06:29:24;;;;;;;1.83;0.95;;;;;;;;;;5065536;28;20389;-61
2022/09/08 06:32:18;;;;;;;4.03;1.92;;;;;;;;;;5067975;28;20050;-60
2022/09/08 06:34:51;;;;;;;2.55;1.30;;;;;;;;;;5067284;28;20036;-61
2022/09/08 06:37:35;;;;;;;4.43;1.20;;;;;;;;;;5064294;28;20797;-61
2022/09/08 06:40:11;;;;;;;3.33;0.90;;;;;;;;;;5061741;28;20020;-61
2022/09/08 06:43:03;;;;;;;1.15;0.80;;;;;;;;;;5064451;28;20036;-62
2022/09/08 06:45:34;;;;;;;1.05;0.90;;;;;;;;;;5055216;28;20371;-62
2022/09/08 06:48:14;;;;;;;3.22;1.33;;;;;;;;;;5060046;28;20020;-63
2022/09/08 06:51:11;;;;;;;2.50;1.45;;;;;;;;;;5065381;28;20024;-62
2022/09/08 06:53:43;;;;;;;2.47;1.42;;;;;;;;;;5062020;28;20483;-62
2022/09/08 06:56:11;;;;;;;2.00;1.20;;;;;;;;;;5065470;28;20031;-61
2022/09/08 06:58:40;;;;;;;2.08;0.98;;;;;;;;;;5064244;28;20025;-62
2022/09/08 07:01:21;;;;;;;2.55;0.90;;;;;;;;;;5063226;28;20123;-61
2022/09/08 07:04:15;;;;;;;4.10;1.13;;;;;;;;;;5062367;28;20025;-61
2022/09/08 07:06:53;;;;;;;1.50;1.20;;;;;;;;;;5055559;28;20490;-62
2022/09/08 07:09:36;;;;;;;1.90;1.17;;;;;;;;;;5059840;28;20053;-61
2022/09/08 07:12:10;;;;;;;1.80;0.93;;;;;;;;;;5056055;28;20510;-62
2022/09/08 07:15:00;;;;;;;2.15;1.05;;;;;;;;;;5058694;28;20020;-61
2022/09/08 07:18:02;;;;;;;2.92;1.10;;;;;;;;;;5058980;28;20103;-62
2022/09/08 07:20:30;;;;;;;1.10;0.90;;;;;;;;;;5057598;28;20036;-61
2022/09/08 07:23:05;;;;;;;2.28;1.20;;;;;;;;;;5060217;28;20390;-61
2022/09/08 07:25:47;;;;;;;2.78;0.90;;;;;;;;;;5068503;28;20029;-62
2022/09/08 07:28:18;;;;;;;2.75;0.98;;;;;;;;;;5068044;28;20016;-60
2022/09/08 07:30:49;;;;;;;1.17;0.80;;;;;;;;;;5066386;28;20025;-60
2022/09/08 07:33:27;;;;;;;1.63;1.00;;;;;;;;;;5066910;28;20074;-62
2022/09/08 07:36:22;;;;;;;2.10;0.90;;;;;;;;;;5065751;28;20039;-62
2022/09/08 07:38:51;;;;;;;1.95;0.90;;;;;;;;;;5066224;28;20490;-61
2022/09/08 07:41:36;;;;;;;2.33;1.00;;;;;;;;;;5067240;28;20033;-60
2022/09/08 07:44:09;;;;;;;0.93;0.52;;;;;;;;;;5061109;28;20263;-61
2022/09/08 07:46:49;;;;;;;2.05;1.20;;;;;;;;;;5063207;28;20509;-61
2022/09/08 07:49:21;;;;;;;;;;;;;;;;;;5065904;28;20056;-60
2022/09/08 07:51:58;;;;;;;0.98;0.77;;;;;;;;;;5063419;28;19960;-59
2022/09/08 07:54:35;;;;;;;1.38;0.90;;;;;;;;;;5057407;28;20025;-60
2022/09/08 07:57:21;;;;;;;3.15;0.95;;;;;;;;;;5054960;28;20016;-59
2022/09/08 08:00:22;;;;;;;1.77;0.95;;;;;;;;;;5061756;28;20508;-59
2022/09/08 08:02:48;;;;;;;1.00;0.80;;;;;;;;;;5063769;28;20037;-59
2022/09/08 08:05:32;;;;;;;2.40;0.98;;;;;;;;;;5057886;28;20444;-60
2022/09/08 08:08:18;;;;;;;1.00;0.75;;;;;;;;;;5061435;28;20017;-59
2022/09/08 08:10:51;;;;;;;1.58;0.93;;;;;;;;;;5059950;28;20435;-60
2022/09/08 08:13:23;;;;;;;1.25;0.60;;;;;;;;;;5060250;28;20028;-60
2022/09/08 08:16:08;;;;;;;3.95;2.58;;;;;;;;;;5056439;28;20032;-59
2022/09/08 08:18:49;;;;;;;1.88;1.30;;;;;;;;;;5057560;28;20064;-60
2022/09/08 08:21:20;;;;;;;2.17;0.93;;;;;;;;;;5058146;28;20382;-59
2022/09/08 08:23:51;;;;;;;1.70;0.65;;;;;;;;;;5058726;28;20061;-59
2022/09/08 08:26:49;;;;;;;1.73;0.80;;;;;;;;;;5067429;28;20060;-60
2022/09/08 08:29:42;;;;;;;1.17;0.57;;;;;;;;;;5064224;28;20076;-60
2022/09/08 08:32:20;;;;;;;0.90;0.80;;;;;;;;;;5059646;28;20461;-59
2022/09/08 08:34:51;;;;;;;0.98;0.80;;;;;;;;;;5065295;28;20029;-60
2022/09/08 08:37:25;;;;;;;2.53;1.00;;;;;;;;;;5062181;28;20029;-60
2022/09/08 08:39:55;;;;;;;0.85;0.75;;;;;;;;;;5062531;28;20039;-59
2022/09/08 08:42:40;;;;;;;4.38;1.80;;;;;;;;;;5069542;28;20543;-59
2022/09/08 08:45:15;;;;;;;6.10;3.13;;;;;;;;;;5058607;28;20457;-59
2022/09/08 08:47:52;;;;;;;3.22;1.20;;;;;;;;;;5062987;28;20389;-60
2022/09/08 08:50:18;;;;;;;1.50;1.10;;;;;;;;;;5071791;28;20051;-60
2022/09/08 08:53:01;;;;;;;2.13;1.35;;;;;;;;;;5066040;28;20482;-59
2022/09/08 08:55:34;;;;;;;2.42;1.20;;;;;;;;;;5064620;28;20150;-59
2022/09/08 08:58:33;;;;;;;2.20;1.10;;;;;;;;;;5061603;28;20028;-59
2022/09/08 09:01:35;;;;;;;3.70;1.85;;;;;;;;;;5063348;28;20494;-59
2022/09/08 09:04:19;;;;;;;3.63;1.73;;;;;;;;;;5063661;28;20043;-59
2022/09/08 09:07:14;;;;;;;1.98;1.10;;;;;;;;;;5063071;28;20029;-59
2022/09/08 09:10:30;;;;;;;3.67;1.52;;;;;;;;;;5059525;28;20037;-60
2022/09/08 09:13:14;;;;;;;3.83;1.60;;;;;;;;;;5071218;28;20093;-60
2022/09/08 09:15:49;;;;;;;2.97;1.50;;;;;;;;;;5066202;28;20033;-59
2022/09/08 09:18:31;;;;;;;2.53;1.67;;;;;;;;;;5062988;28;20025;-59
2022/09/08 09:21:20;;;;;;;3.92;1.60;;;;;;;;;;5067835;28;20028;-60
2022/09/08 09:24:02;;;;;;;6.32;3.28;;;;;;;;;;5068364;28;20029;-59
2022/09/08 09:26:35;;;;;;;2.17;1.50;;;;;;;;;;5066795;28;20040;-59
2022/09/08 09:29:07;;;;;;;11.52;6.03;;;;;;;;;;5070375;28;20398;-59
2022/09/08 09:31:35;;;;;;;3.58;1.67;;;;;;;;;;5068963;28;20560;-60
2022/09/08 09:34:31;;;;;;;4.28;1.70;;;;;;;;;;5068382;28;20065;-59
2022/09/08 09:37:02;;;;;;;2.35;1.52;;;;;;;;;;5059685;28;20032;-60
2022/09/08 09:39:58;;;;;;;3.08;1.50;;;;;;;;;;5069408;28;20082;-59
2022/09/08 09:42:51;;;;;;;2.03;1.42;;;;;;;;;;5064770;28;20032;-59
2022/09/08 09:45:22;;;;;;;2.83;1.90;;;;;;;;;;5062248;28;20031;-60
2022/09/08 09:48:12;;;;;;;2.15;1.55;;;;;;;;;;5066222;28;20024;-59
2022/09/08 09:50:56;;;;;;;3.25;1.38;;;;;;;;;;5063669;28;20132;-60
2022/09/08 09:53:41;;;;;;;5.65;1.55;;;;;;;;;;5061257;28;20020;-60
2022/09/08 09:56:21;;;;;;;3.25;1.83;;;;;;;;;;5062058;28;20406;-60
2022/09/08 09:59:02;;;;;;;3.55;2.47;;;;;;;;;;5067114;28;20078;-60
2022/09/08 10:01:36;;;;;;;2.17;1.55;;;;;;;;;;5062822;28;20405;-59
2022/09/08 10:04:27;;;;;;;2.22;1.40;;;;;;;;;;5064623;28;20032;-60
2022/09/08 10:06:58;;;;;;;2.30;1.27;;;;;;;;;;5063841;28;20106;-59
2022/09/08 10:10:06;;;;;;;3.88;1.33;;;;;;;;;;5062642;28;20056;-59
2022/09/08 10:12:46;;;;;;;9.45;1.83;;;;;;;;;;5056818;28;20025;-60
2022/09/08 10:15:49;;;;;;;4.20;1.73;;;;;;;;;;5060282;28;20071;-59
2022/09/08 10:18:42;;;;;;;5.07;1.40;;;;;;;;;;5068442;28;20103;-60
2022/09/08 10:21:13;;;;;;;3.05;1.30;;;;;;;;;;5061270;28;20048;-59
2022/09/08 10:24:06;;;;;;;2.22;1.60;;;;;;;;;;5067530;28;20028;-60
2022/09/08 10:26:58;;;;;;;3.38;1.48;;;;;;;;;;5059490;28;20108;-60
2022/09/08 10:29:42;;;;;;;3.20;1.55;;;;;;;;;;5065116;28;20024;-59
2022/09/08 10:32:29;;;;;;;2.55;1.50;;;;;;;;;;5067222;28;20398;-60
2022/09/08 10:35:13;;;;;;;3.40;1.63;;;;;;;;;;5066942;28;20032;-60
2022/09/08 10:37:41;;;;;;;2.95;1.40;;;;;;;;;;5067663;28;20111;-59
2022/09/08 10:40:37;;;;;;;4.40;1.70;;;;;;;;;;5067825;28;20029;-60
2022/09/08 10:43:46;;;;;;;3.88;2.17;;;;;;;;;;5061866;28;20143;-60
2022/09/08 10:46:44;;;;;;;4.38;1.73;;;;;;;;;;5060797;28;20036;-60
2022/09/08 10:49:18;;;;;;;5.25;1.40;;;;;;;;;;5066182;28;20051;-60
2022/09/08 10:51:59;;;;;;;3.85;1.58;;;;;;;;;;5063433;28;20029;-59
2022/09/08 10:54:42;;;;;;;4.10;1.50;;;;;;;;;;5063342;28;20095;-60
2022/09/08 10:57:33;;;;;;;4.28;1.80;;;;;;;;;;5063833;28;20390;-59
2022/09/08 11:00:12;;;;;;;2.15;1.50;;;;;;;;;;5071902;28;20040;-60
2022/09/08 11:03:07;;;;;;;2.13;1.40;;;;;;;;;;5066934;28;20032;-60
2022/09/08 11:05:51;;;;;;;4.30;1.40;;;;;;;;;;5060564;28;20044;-60
2022/09/08 11:08:22;;;;;;;3.10;1.20;;;;;;;;;;5061887;28;20024;-60
2022/09/08 11:11:18;;;;;;;1.77;1.23;;;;;;;;;;5065032;28;20032;-59
2022/09/08 11:13:59;;;;;;;1.98;1.23;;;;;;;;;;5064018;28;20540;-60
2022/09/08 11:17:02;;;;;;;2.53;1.33;;;;;;;;;;5057584;28;20123;-60
2022/09/08 11:19:51;;;;;;;2.58;1.17;;;;;;;;;;5058216;28;20025;-60
2022/09/08 11:22:45;;;;;;;2.35;1.20;;;;;;;;;;5067945;28;20031;-60
2022/09/08 11:25:38;;;;;;;2.35;0.90;;;;;;;;;;5062795;28;20135;-60
2022/09/08 11:28:48;;;;;;;1.40;0.85;;;;;;;;;;5067522;28;20074;-60
2022/09/08 11:31:19;;;;;;;3.90;0.93;;;;;;;;;;5070453;28;20040;-60
2022/09/08 11:34:03;;;;;;;3.50;1.20;;;;;;;;;;5066081;28;20024;-60
2022/09/08 11:36:28;;;;;;;2.10;0.90;;;;;;;;;;5065091;28;20017;-60
2022/09/08 11:39:31;;;;;;;2.63;1.17;;;;;;;;;;5062294;28;20040;-59
2022/09/08 11:42:21;;;;;;;1.23;1.00;;;;;;;;;;5064880;28;20024;-58
2022/09/08 11:44:49;;;;;;;1.80;1.10;;;;;;;;;;5062320;28;20090;-59
2022/09/08 11:47:41;;;;;;;2.75;1.20;;;;;;;;;;5064111;28;20111;-58
2022/09/08 11:50:30;;;;;;;1.05;0.93;;;;;;;;;;5067966;28;20028;-58
2022/09/08 11:52:58;;;;;;;1.65;1.17;;;;;;;;;;5065064;28;20090;-58
2022/09/08 11:55:27;;;;;;;2.40;1.20;;;;;;;;;;5066573;28;20043;-59
2022/09/08 11:58:28;;;;;;;2.63;1.20;;;;;;;;;;5063176;28;20042;-58
2022/09/08 12:00:56;;;;;;;2.17;1.10;;;;;;;;;;5061320;28;20116;-59
2022/09/08 12:03:40;;;;;;;5.53;1.20;;;;;;;;;;5060250;28;20025;-58
2022/09/08 12:06:05;;;;;;;1.67;1.00;;;;;;;;;;5051306;28;20120;-59
2022/09/08 12:08:52;;;;;;;2.03;0.90;;;;;;;;;;5061143;28;20136;-58
2022/09/08 12:11:20;;;;;;;3.33;1.20;;;;;;;;;;5062451;28;20047;-58
2022/09/08 12:13:45;;;;;;;3.05;1.20;;;;;;;;;;5060545;28;20016;-58
2022/09/08 12:16:29;;;;;;;2.70;0.98;;;;;;;;;;5051573;28;20033;-59
2022/09/08 12:19:36;;;;;;;3.45;1.00;;;;;;;;;;5060789;28;20071;-59
2022/09/08 12:22:04;;;;;;;1.27;0.90;;;;;;;;;;5058436;28;20044;-59
2022/09/08 12:24:51;;;;;;;2.97;1.08;;;;;;;;;;5067349;28;20028;-59
2022/09/08 12:27:54;;;;;;;2.80;1.00;;;;;;;;;;5064564;28;20078;-59
2022/09/08 12:30:21;;;;;;;1.10;0.88;;;;;;;;;;5060470;28;20160;-59
2022/09/08 12:33:03;;;;;;;2.17;0.90;;;;;;;;;;5066644;28;20462;-59
2022/09/08 12:35:48;;;;;;;1.58;0.80;;;;;;;;;;5064695;28;20408;-59
2022/09/08 12:38:43;;;;;;;3.05;0.82;;;;;;;;;;5060866;28;20436;-59
2022/09/08 12:41:39;;;;;;;2.17;1.10;;;;;;;;;;5062408;28;20032;-59
2022/09/08 12:44:23;;;;;;;1.88;0.90;;;;;;;;;;5058837;28;20375;-59
2022/09/08 12:47:18;;;;;;;1.23;0.90;;;;;;;;;;5062968;28;20044;-59
2022/09/08 12:50:13;;;;;;;1.85;0.77;;;;;;;;;;5061531;28;20090;-59
2022/09/08 12:52:53;;;;;;;2.80;0.80;;;;;;;;;;5060106;28;20039;-59
2022/09/08 12:55:36;;;;;;;2.53;0.93;;;;;;;;;;5050904;28;20047;-59
2022/09/08 12:58:03;;;;;;;3.88;0.88;;;;;;;;;;5061102;28;20490;-59
2022/09/08 13:00:49;;;;;;;1.55;0.70;;;;;;;;;;5060258;28;20040;-59
2022/09/08 13:03:37;;;;;;;2.80;0.90;;;;;;;;;;5059687;28;20445;-59
2022/09/08 13:06:23;;;;;;;2.83;1.10;;;;;;;;;;5056372;28;20020;-59
2022/09/08 13:08:59;;;;;;;3.38;0.95;;;;;;;;;;5058707;28;20020;-59
2022/09/08 13:11:52;;;;;;;1.70;0.90;;;;;;;;;;5057253;28;20040;-59
2022/09/08 13:14:40;;;;;;;1.83;0.75;;;;;;;;;;5065711;28;20424;-59
2022/09/08 13:17:05;;;;;;;1.15;0.80;;;;;;;;;;5056585;28;20059;-59
2022/09/08 13:19:34;;;;;;;4.20;1.02;;;;;;;;;;5063699;28;20056;-59
2022/09/08 13:22:19;;;;;;;3.33;0.95;;;;;;;;;;5060764;28;20313;-59
2022/09/08 13:24:54;;;;;;;2.03;1.08;;;;;;;;;;5065749;28;20028;-59
2022/09/08 13:27:41;;;;;;;2.42;0.90;;;;;;;;;;5067306;28;20029;-59
2022/09/08 13:30:10;;;;;;;2.97;0.70;;;;;;;;;;5068888;28;20048;-59
2022/09/08 13:32:53;;;;;;;2.28;0.80;;;;;;;;;;5066573;28;20028;-59
2022/09/08 13:35:49;;;;;;;0.68;0.68;;;;;;;;;;5068922;28;20032;-59
2022/09/08 13:38:36;;;;;;;2.22;0.75;;;;;;;;;;5064627;28;20432;-59
2022/09/08 13:41:10;;;;;;;1.33;0.80;;;;;;;;;;5061929;28;20054;-59
2022/09/08 13:43:50;;;;;;;2.13;1.00;;;;;;;;;;5068911;28;20035;-59
2022/09/08 13:46:40;;;;;;;1.58;0.70;;;;;;;;;;5059870;28;20035;-59
2022/09/08 13:49:26;;;;;;;1.90;0.70;;;;;;;;;;5061593;28;20073;-59
2022/09/08 13:52:34;;;;;;;4.80;0.93;;;;;;;;;;5069007;28;20067;-59
2022/09/08 13:55:17;;;;;;;1.77;0.60;;;;;;;;;;5060114;28;20478;-59
2022/09/08 13:57:51;;;;;;;8.55;0.75;;;;;;;;;;5063341;28;20036;-59
2022/09/08 14:00:17;;;;;;;1.58;0.70;;;;;;;;;;5060739;28;20031;-59
2022/09/08 14:02:58;;;;;;;3.38;1.00;;;;;;;;;;5061300;28;20025;-59
2022/09/08 14:05:29;;;;;;;2.08;0.93;;;;;;;;;;5062231;28;20098;-60
2022/09/08 14:08:10;;;;;;;2.13;0.90;;;;;;;;;;5065795;28;20036;-59
2022/09/08 14:10:55;;;;;;;2.38;1.00;;;;;;;;;;5066911;28;20032;-59
2022/09/08 14:13:30;;;;;;;2.38;1.08;;;;;;;;;;5060956;28;20070;-59
2022/09/08 14:16:18;;;;;;;2.38;1.00;;;;;;;;;;5058935;28;20020;-59
2022/09/08 14:19:03;;;;;;;0.82;0.60;;;;;;;;;;5068861;28;20024;-58
2022/09/08 14:21:55;;;;;;;2.30;0.63;;;;;;;;;;5066472;28;20550;-59
2022/09/08 14:24:54;;;;;;;2.72;0.77;;;;;;;;;;5064359;28;20025;-59
2022/09/08 14:27:24;;;;;;;3.00;0.70;;;;;;;;;;5065272;28;20112;-59
2022/09/08 14:30:24;;;;;;;4.10;1.17;;;;;;;;;;5066686;28;20029;-59
2022/09/08 14:32:52;;;;;;;6.95;0.90;;;;;;;;;;5060261;28;20074;-59
2022/09/08 14:35:33;;;;;;;2.67;1.17;;;;;;;;;;5058034;28;20600;-59
2022/09/08 14:38:02;;;;;;;4.35;0.85;;;;;;;;;;5064637;28;20060;-59
2022/09/08 14:40:48;;;;;;;2.33;0.93;;;;;;;;;;5066003;28;20031;-59
2022/09/08 14:43:27;;;;;;;2.38;1.10;;;;;;;;;;5062768;28;20041;-59
2022/09/08 14:46:07;;;;;;;2.40;0.90;;;;;;;;;;5064331;28;20025;-60
2022/09/08 14:48:49;;;;;;;2.90;0.80;;;;;;;;;;5064469;28;20067;-59
2022/09/08 14:51:45;;;;;;;1.95;0.95;;;;;;;;;;5062603;28;20433;-60
2022/09/08 14:54:49;;;;;;;3.88;1.63;;;;;;;;;;5061838;28;20024;-59
2022/09/08 14:57:20;;;;;;;6.78;2.55;;;;;;;;;;5060012;28;20128;-59
2022/09/08 15:00:11;;;;;;;2.67;1.00;;;;;;;;;;5061468;28;20498;-59
2022/09/08 15:03:07;;;;;;;1.75;0.77;;;;;;;;;;5061628;28;20521;-59
2022/09/08 15:05:32;;;;;;;2.08;0.75;;;;;;;;;;5059701;28;20356;-59
2022/09/08 15:08:16;;;;;;;2.10;0.80;;;;;;;;;;5066199;28;20050;-59
2022/09/08 15:10:57;;;;;;;3.22;0.80;;;;;;;;;;5063750;28;20024;-59
2022/09/08 15:13:29;;;;;;;2.22;0.98;;;;;;;;;;5056667;28;20048;-59
2022/09/08 15:16:20;;;;;;;2.03;0.90;;;;;;;;;;5058367;28;20025;-59
2022/09/08 15:18:49;;;;;;;3.10;1.02;;;;;;;;;;5067592;28;20025;-59
2022/09/08 15:21:19;;;;;;;3.67;1.10;;;;;;;;;;5068419;28;20028;-59
2022/09/08 15:23:51;;;;;;;1.95;0.75;;;;;;;;;;5057405;28;20029;-59
2022/09/08 15:26:37;;;;;;;5.18;0.85;;;;;;;;;;5062910;28;20051;-59
2022/09/08 15:29:12;;;;;;;2.65;0.60;;;;;;;;;;5062730;28;20024;-59
2022/09/08 15:31:45;;;;;;;5.60;1.35;;;;;;;;;;5065512;28;20024;-59
2022/09/08 15:34:21;;;;;;;4.07;0.80;;;;;;;;;;5062549;28;20029;-60
2022/09/08 15:37:14;;;;;;;4.25;0.85;;;;;;;;;;5064675;28;20042;-59
2022/09/08 15:40:05;;;;;;;0.90;0.80;;;;;;;;;;5063597;28;20247;-57